Terminal Aerodrome Forecast
Issued by NWS

Home | Current Version | Previous Version | Text Only | Print | Product List | Glossary On
Versions: 1 2 3 4 5 6 7 8 9 10 11 12 13
854
FTUS44 KMAF 281120
TAFPEQ
TAF
KPEQ 281120Z 2812/2912 05007KT P6SM SCT060 BKN100
      TEMPO 2820/2823 VRB15G25KT 4SM TSRA BKN050CB=

USA.gov is the U.S. government's official web portal to all federal, state and local government web resources and services.